Cushing, OK

6:56 AM CST on February 13, 2016 (GMT -0600)
Cushing Municipal | | Change Station
CLOSE
Current Station
Airport
Location: Cushing,
Elevation: 915 ft
Nearby Weather Stations

Elev 915 ft 35.95 °N, 96.77 °W | Updated 21 minutes ago

Clear
Clear
29 °F
Feels Like 23 °F
N
6
Wind Variable Wind from ENE

Today
High -- | Low -- °F
--% Chance of Precip.
Yesterday
High -- | Low -- °F
Precip. -- in
Pressure 30.47 in
Visibility 10.0 miles
Clouds Clear
Windchill 23 °F
Dew Point 17 °F
Humidity 60%
Rainfall 0.00 in
Snow Depth Not available.
7:16 AM 6:06 PM
Waxing Crescent, 30% visible
METAR KCUH 131235Z AUTO 07005KT 10SM CLR M01/M08 A3047 RMK AO2 T10151084
Pressure 30.47 in
Visibility 10.0 miles
Clouds Clear
Windchill 23 °F
Dew Point 17 °F
Humidity 60%
Rainfall 0.00 in
Snow Depth Not available.
7:16 AM 6:06 PM
Waxing Crescent, 30% visible
METAR KCUH 131235Z AUTO 07005KT 10SM CLR M01/M08 A3047 RMK AO2 T10151084

10-Day Weather Forecast

Almanac

Astronomy

Feb. 13, 2016 Rise Set
Actual Time
Civil Twilight
Nautical Twilight
Astronomical Twilight
Moon
Length of Visible Light
Length of Day
Tomorrow will be .
, % of the Moon is Illuminated

Today's Extremes

State Highs State Lows

Community

WunderPhotos

Upload Photos

1,892,543 photos uploaded!

WunderBlog® & News

Nearby

Air Quality

  Air Quality AQ Index Pollutant
Not available.

Snow Depth

Station Depth Elevation

Earthquake Activity

City Distance Mag. Time & Date
Minimum magnitude displayed is 2.5.

Coastal Water Temperatures

Place Temperature

Stations

Nearby Weather Stations

Station Location Temp. Windchill Dew Point Humidity Wind Precip. Elev Updated Type
                   

Watches & Warnings

There are currently no watches in effect.